Time,TemperatureF,DewpointF,PressureIn,WindDirection,WindDirectionDegrees,WindSpeedMPH,WindSpeedGustMPH,Humidity,HourlyPrecipIn,Conditions,Clouds,dailyrainin,SoftwareType,DateUTC
2013-03-29 00:03:00,49.0,42.0,30.27,North,0,0.0,0.0,78,99.99,,,-99.99,,2013-03-29 04:03:00,
2013-03-29 00:13:00,49.0,42.0,30.27,North,0,0.0,0.0,78,99.99,,,-99.99,,2013-03-29 04:13:00,
2013-03-29 00:23:00,49.0,43.0,30.27,North,0,0.0,0.0,80,99.99,,,-99.99,,2013-03-29 04:23:00,
2013-03-29 00:33:00,47.0,42.0,30.28,NW,307,5.0,8.0,83,99.99,,,-99.99,,2013-03-29 04:33:00,
2013-03-29 00:43:00,47.0,42.0,30.28,NW,307,5.0,8.0,83,99.99,,,-99.99,,2013-03-29 04:43:00,
2013-03-29 00:53:00,49.0,44.0,30.28,NW,319,3.0,4.0,83,99.99,,,-99.99,,2013-03-29 04:53:00,
2013-03-29 01:03:00,49.0,44.0,30.28,NW,319,2.0,2.0,82,99.99,,,-99.99,,2013-03-29 05:03:00,
2013-03-29 01:12:00,49.0,44.0,30.28,NW,319,2.0,2.0,82,99.99,,,-99.99,,2013-03-29 05:12:00,
2013-03-29 01:23:00,48.0,43.0,30.28,NNW,333,2.0,2.0,82,99.99,,,-99.99,,2013-03-29 05:23:00,
2013-03-29 01:33:00,48.0,43.0,30.28,NW,319,2.0,2.0,83,99.99,,,-99.99,,2013-03-29 05:33:00,
2013-03-29 01:43:00,48.0,43.0,30.28,NW,319,2.0,2.0,83,99.99,,,-99.99,,2013-03-29 05:43:00,
2013-03-29 01:52:00,47.0,42.0,30.28,NNW,339,3.0,3.0,84,99.99,,,-99.99,,2013-03-29 05:52:00,
2013-03-29 02:02:00,46.0,42.0,30.27,North,352,4.0,4.0,85,99.99,,,-99.99,,2013-03-29 06:02:00,
2013-03-29 02:12:00,46.0,42.0,30.27,North,352,4.0,4.0,85,99.99,,,-99.99,,2013-03-29 06:12:00,
2013-03-29 02:23:00,46.0,42.0,30.27,North,1,4.0,6.0,86,99.99,,,-99.99,,2013-03-29 06:23:00,
2013-03-29 02:32:00,45.0,41.0,30.27,NNW,346,1.0,2.0,87,99.99,,,-99.99,,2013-03-29 06:32:00,
2013-03-29 02:42:00,45.0,41.0,30.27,NNW,346,1.0,2.0,87,99.99,,,-99.99,,2013-03-29 06:42:00,
2013-03-29 02:52:00,45.0,42.0,30.27,North,0,0.0,0.0,88,99.99,,,-99.99,,2013-03-29 06:52:00,
2013-03-29 03:12:00,45.0,42.0,30.27,North,0,0.0,0.0,89,99.99,,,-99.99,,2013-03-29 07:12:00,
2013-03-29 03:22:00,45.0,42.0,30.27,North,11,0.0,1.0,89,99.99,,,-99.99,,2013-03-29 07:22:00,
2013-03-29 03:32:00,44.0,41.0,30.26,North,357,3.0,4.0,90,99.99,,,-99.99,,2013-03-29 07:32:00,
2013-03-29 03:42:00,44.0,41.0,30.26,North,357,3.0,4.0,90,99.99,,,-99.99,,2013-03-29 07:42:00,
2013-03-29 03:52:00,44.0,42.0,30.26,North,349,2.0,3.0,91,99.99,,,-99.99,,2013-03-29 07:52:00,
2013-03-29 04:02:00,44.0,42.0,30.26,North,356,3.0,4.0,92,99.99,,,-99.99,,2013-03-29 08:02:00,
2013-03-29 04:12:00,44.0,42.0,30.26,North,356,3.0,4.0,92,99.99,,,-99.99,,2013-03-29 08:12:00,
2013-03-29 04:22:00,44.0,42.0,30.26,North,11,3.0,4.0,92,99.99,,,-99.99,,2013-03-29 08:22:00,
2013-03-29 04:32:00,44.0,42.0,30.25,North,352,1.0,2.0,93,99.99,,,-99.99,,2013-03-29 08:32:00,
2013-03-29 04:42:00,44.0,42.0,30.25,North,352,1.0,2.0,93,99.99,,,-99.99,,2013-03-29 08:42:00,
2013-03-29 04:53:00,43.0,41.0,30.26,North,354,3.0,3.0,94,99.99,,,-99.99,,2013-03-29 08:53:00,
2013-03-29 05:02:00,43.0,41.0,30.26,North,1,3.0,5.0,94,99.99,,,-99.99,,2013-03-29 09:02:00,
2013-03-29 05:13:00,43.0,41.0,30.26,North,1,3.0,5.0,94,99.99,,,-99.99,,2013-03-29 09:13:00,
2013-03-29 05:22:00,43.0,41.0,30.25,North,354,3.0,4.0,94,99.99,,,-99.99,,2013-03-29 09:22:00,
2013-03-29 05:33:00,43.0,41.0,30.25,NNE,13,3.0,4.0,94,99.99,,,-99.99,,2013-03-29 09:33:00,
2013-03-29 05:43:00,43.0,41.0,30.25,NNE,13,3.0,4.0,94,99.99,,,-99.99,,2013-03-29 09:43:00,
2013-03-29 05:52:00,42.0,41.0,30.26,NNE,15,4.0,5.0,95,99.99,,,-99.99,,2013-03-29 09:52:00,
2013-03-29 06:03:00,42.0,41.0,30.26,North,11,3.0,4.0,95,99.99,,,-99.99,,2013-03-29 10:03:00,
2013-03-29 06:12:00,42.0,41.0,30.26,North,11,3.0,4.0,95,99.99,,,-99.99,,2013-03-29 10:12:00,
2013-03-29 06:23:00,42.0,41.0,30.26,North,8,4.0,4.0,95,99.99,,,-99.99,,2013-03-29 10:23:00,
2013-03-29 06:33:00,42.0,41.0,30.27,North,3,4.0,5.0,96,99.99,,,-99.99,,2013-03-29 10:33:00,
2013-03-29 06:42:00,42.0,41.0,30.27,North,3,4.0,5.0,96,99.99,,,-99.99,,2013-03-29 10:42:00,
2013-03-29 06:53:00,42.0,41.0,30.27,North,3,4.0,6.0,96,99.99,,,-99.99,,2013-03-29 10:53:00,
2013-03-29 07:03:00,43.0,42.0,30.27,NNE,15,5.0,6.0,97,99.99,,,-99.99,,2013-03-29 11:03:00,
2013-03-29 07:12:00,43.0,42.0,30.27,NNE,15,5.0,6.0,97,99.99,,,-99.99,,2013-03-29 11:12:00,
2013-03-29 07:23:00,44.0,43.0,30.28,North,1,5.0,6.0,98,99.99,,,-99.99,,2013-03-29 11:23:00,
2013-03-29 07:33:00,45.0,45.0,30.29,North,8,4.0,6.0,99,99.99,,,-99.99,,2013-03-29 11:33:00,
2013-03-29 07:42:00,45.0,45.0,30.29,North,8,4.0,6.0,99,99.99,,,-99.99,,2013-03-29 11:42:00,
2013-03-29 07:53:00,46.0,46.0,30.29,North,10,4.0,6.0,99,99.99,,,-99.99,,2013-03-29 11:53:00,
2013-03-29 08:03:00,46.0,46.0,30.29,North,10,4.0,5.0,99,99.99,,,-99.99,,2013-03-29 12:03:00,
2013-03-29 08:12:00,46.0,46.0,30.29,North,10,4.0,5.0,99,99.99,,,-99.99,,2013-03-29 12:12:00,
2013-03-29 08:22:00,47.0,47.0,30.30,North,6,4.0,6.0,100,99.99,,,-99.99,,2013-03-29 12:22:00,
2013-03-29 08:32:00,49.0,49.0,30.30,NNE,15,3.0,5.0,100,99.99,,,-99.99,,2013-03-29 12:32:00,
2013-03-29 08:42:00,49.0,49.0,30.30,NNE,15,3.0,5.0,100,99.99,,,-99.99,,2013-03-29 12:42:00,
2013-03-29 08:53:00,51.0,51.0,30.31,NNE,14,5.0,7.0,100,99.99,,,-99.99,,2013-03-29 12:53:00,
2013-03-29 09:03:00,53.0,52.0,30.31,North,6,3.0,5.0,95,99.99,,,-99.99,,2013-03-29 13:03:00,
2013-03-29 09:12:00,53.0,52.0,30.31,North,6,3.0,5.0,95,99.99,,,-99.99,,2013-03-29 13:12:00,
2013-03-29 09:22:00,55.0,51.0,30.31,NNE,13,4.0,7.0,87,99.99,,,-99.99,,2013-03-29 13:22:00,
2013-03-29 09:32:00,58.0,50.0,30.32,NNE,14,5.0,10.0,76,99.99,,,-99.99,,2013-03-29 13:32:00,
2013-03-29 09:42:00,58.0,50.0,30.32,NNE,14,5.0,10.0,76,99.99,,,-99.99,,2013-03-29 13:42:00,
2013-03-29 09:52:00,60.0,51.0,30.32,NNE,13,4.0,9.0,71,99.99,,,-99.99,,2013-03-29 13:52:00,
2013-03-29 10:03:00,62.0,50.0,30.33,NNE,24,2.0,6.0,65,99.99,,,-99.99,,2013-03-29 14:03:00,
2013-03-29 10:12:00,62.0,50.0,30.33,NNE,24,2.0,6.0,65,99.99,,,-99.99,,2013-03-29 14:12:00,
2013-03-29 10:22:00,64.0,47.0,30.33,NE,56,5.0,9.0,53,99.99,,,-99.99,,2013-03-29 14:22:00,
2013-03-29 10:32:00,65.0,44.0,30.33,NE,44,3.0,7.0,46,99.99,,,-99.99,,2013-03-29 14:32:00,
2013-03-29 10:42:00,65.0,44.0,30.33,NE,44,3.0,7.0,46,99.99,,,-99.99,,2013-03-29 14:42:00,
2013-03-29 10:53:00,66.0,43.0,30.33,NE,56,6.0,12.0,43,99.99,,,-99.99,,2013-03-29 14:53:00,
2013-03-29 11:02:00,67.0,43.0,30.34,NE,53,4.0,12.0,41,99.99,,,-99.99,,2013-03-29 15:02:00,
2013-03-29 11:12:00,67.0,43.0,30.34,NE,53,4.0,12.0,41,99.99,,,-99.99,,2013-03-29 15:12:00,
2013-03-29 11:22:00,68.0,43.0,30.33,NNE,17,4.0,10.0,41,99.99,,,-99.99,,2013-03-29 15:22:00,
2013-03-29 11:33:00,68.0,44.0,30.33,North,6,3.0,9.0,42,99.99,,,-99.99,,2013-03-29 15:33:00,
2013-03-29 11:43:00,68.0,44.0,30.33,North,6,3.0,9.0,42,99.99,,,-99.99,,2013-03-29 15:43:00,
2013-03-29 11:53:00,69.0,40.0,30.33,NE,46,6.0,15.0,35,99.99,,,-99.99,,2013-03-29 15:53:00,
2013-03-29 12:03:00,69.0,37.0,30.32,NE,46,6.0,13.0,31,99.99,,,-99.99,,2013-03-29 16:03:00,
2013-03-29 12:13:00,69.0,37.0,30.32,NE,46,6.0,13.0,31,99.99,,,-99.99,,2013-03-29 16:13:00,
2013-03-29 12:23:00,70.0,37.0,30.32,ENE,58,5.0,13.0,30,99.99,,,-99.99,,2013-03-29 16:23:00,
2013-03-29 12:33:00,71.0,35.0,30.31,North,11,6.0,13.0,27,99.99,,,-99.99,,2013-03-29 16:33:00,
2013-03-29 12:42:00,71.0,35.0,30.31,North,11,6.0,13.0,27,99.99,,,-99.99,,2013-03-29 16:42:00,
2013-03-29 12:53:00,71.0,34.0,30.31,ESE,108,5.0,11.0,26,99.99,,,-99.99,,2013-03-29 16:53:00,
2013-03-29 13:03:00,71.0,35.0,30.30,SE,125,4.0,9.0,27,99.99,,,-99.99,,2013-03-29 17:03:00,
2013-03-29 13:12:00,71.0,35.0,30.30,SE,125,4.0,9.0,27,99.99,,,-99.99,,2013-03-29 17:12:00,
2013-03-29 13:23:00,71.0,33.0,30.29,NNE,27,6.0,11.0,25,99.99,,,-99.99,,2013-03-29 17:23:00,
2013-03-29 13:33:00,72.0,33.0,30.29,NNE,15,7.0,11.0,24,99.99,,,-99.99,,2013-03-29 17:33:00,
2013-03-29 13:43:00,72.0,33.0,30.29,NNE,15,7.0,11.0,24,99.99,,,-99.99,,2013-03-29 17:43:00,
2013-03-29 13:53:00,72.0,35.0,30.27,NE,53,4.0,10.0,26,99.99,,,-99.99,,2013-03-29 17:53:00,
2013-03-29 14:02:00,73.0,34.0,30.27,North,3,7.0,12.0,24,99.99,,,-99.99,,2013-03-29 18:02:00,
2013-03-29 14:12:00,73.0,34.0,30.27,North,3,7.0,12.0,24,99.99,,,-99.99,,2013-03-29 18:12:00,
2013-03-29 14:23:00,73.0,34.0,30.27,North,3,7.0,12.0,24,99.99,,,-99.99,,2013-03-29 18:23:00,
2013-03-29 14:32:00,72.0,31.0,30.26,NNW,346,8.0,11.0,22,99.99,,,-99.99,,2013-03-29 18:32:00,
2013-03-29 14:42:00,72.0,31.0,30.26,NNW,346,8.0,11.0,22,99.99,,,-99.99,,2013-03-29 18:42:00,
2013-03-29 14:53:00,74.0,34.0,30.25,NE,44,3.0,8.0,23,99.99,,,-99.99,,2013-03-29 18:53:00,
2013-03-29 15:02:00,74.0,33.0,30.24,NE,46,3.0,9.0,22,99.99,,,-99.99,,2013-03-29 19:02:00,
2013-03-29 15:12:00,74.0,32.0,30.24,North,359,5.0,11.0,21,99.99,,,-99.99,,2013-03-29 19:12:00,
2013-03-29 15:23:00,74.0,32.0,30.24,North,359,5.0,11.0,21,99.99,,,-99.99,,2013-03-29 19:23:00,
2013-03-29 15:32:00,74.0,33.0,30.24,North,349,4.0,9.0,22,99.99,,,-99.99,,2013-03-29 19:32:00,
2013-03-29 15:42:00,74.0,33.0,30.24,North,349,4.0,9.0,22,99.99,,,-99.99,,2013-03-29 19:42:00,
2013-03-29 15:53:00,75.0,30.0,30.23,NE,55,6.0,12.0,19,99.99,,,-99.99,,2013-03-29 19:53:00,
2013-03-29 16:02:00,75.0,32.0,30.23,NNE,13,5.0,13.0,21,99.99,,,-99.99,,2013-03-29 20:02:00,
2013-03-29 16:12:00,75.0,32.0,30.23,NNE,13,5.0,13.0,21,99.99,,,-99.99,,2013-03-29 20:12:00,
2013-03-29 16:22:00,75.0,35.0,30.22,NNE,17,6.0,12.0,23,99.99,,,-99.99,,2013-03-29 20:22:00,
2013-03-29 16:33:00,74.0,30.0,30.22,North,8,8.0,16.0,20,99.99,,,-99.99,,2013-03-29 20:33:00,
2013-03-29 16:42:00,74.0,30.0,30.22,North,8,8.0,16.0,20,99.99,,,-99.99,,2013-03-29 20:42:00,
2013-03-29 16:52:00,75.0,35.0,30.22,NNE,21,3.0,10.0,23,99.99,,,-99.99,,2013-03-29 20:52:00,
2013-03-29 17:02:00,75.0,31.0,30.21,NNE,23,6.0,11.0,20,99.99,,,-99.99,,2013-03-29 21:02:00,
2013-03-29 17:12:00,75.0,31.0,30.21,NNE,23,6.0,11.0,20,99.99,,,-99.99,,2013-03-29 21:12:00,
2013-03-29 17:22:00,76.0,32.0,30.20,North,359,1.0,5.0,20,99.99,,,-99.99,,2013-03-29 21:22:00,
2013-03-29 17:33:00,75.0,31.0,30.20,North,4,1.0,5.0,20,99.99,,,-99.99,,2013-03-29 21:33:00,
2013-03-29 17:42:00,75.0,31.0,30.20,North,4,1.0,5.0,20,99.99,,,-99.99,,2013-03-29 21:42:00,
2013-03-29 17:53:00,74.0,33.0,30.20,NE,55,3.0,8.0,22,99.99,,,-99.99,,2013-03-29 21:53:00,
2013-03-29 18:03:00,74.0,33.0,30.20,ENE,73,0.0,4.0,22,99.99,,,-99.99,,2013-03-29 22:03:00,
2013-03-29 18:13:00,74.0,33.0,30.20,ENE,73,0.0,4.0,22,99.99,,,-99.99,,2013-03-29 22:13:00,
2013-03-29 18:23:00,73.0,34.0,30.20,NE,48,3.0,6.0,24,99.99,,,-99.99,,2013-03-29 22:23:00,
2013-03-29 18:33:00,73.0,34.0,30.20,North,0,0.0,0.0,24,99.99,,,-99.99,,2013-03-29 22:33:00,
2013-03-29 18:42:00,73.0,34.0,30.20,North,0,0.0,0.0,24,99.99,,,-99.99,,2013-03-29 22:42:00,
2013-03-29 18:54:00,73.0,34.0,30.20,North,0,0.0,0.0,24,99.99,,,-99.99,,2013-03-29 22:54:00,
2013-03-29 19:03:00,73.0,37.0,30.20,NNE,23,1.0,4.0,27,99.99,,,-99.99,,2013-03-29 23:03:00,
2013-03-29 19:12:00,73.0,37.0,30.20,NNE,23,1.0,4.0,27,99.99,,,-99.99,,2013-03-29 23:12:00,
2013-03-29 19:22:00,72.0,36.0,30.20,NE,52,1.0,3.0,27,99.99,,,-99.99,,2013-03-29 23:22:00,
2013-03-29 19:32:00,71.0,40.0,30.20,NE,56,0.0,1.0,32,99.99,,,-99.99,,2013-03-29 23:32:00,
2013-03-29 19:42:00,71.0,40.0,30.20,NE,56,0.0,1.0,32,99.99,,,-99.99,,2013-03-29 23:42:00,
2013-03-29 19:53:00,70.0,40.0,30.21,ESE,113,3.0,6.0,34,99.99,,,-99.99,,2013-03-29 23:53:00,
2013-03-29 20:03:00,68.0,43.0,30.22,East,101,3.0,7.0,40,99.99,,,-99.99,,2013-03-30 00:03:00,
2013-03-29 20:12:00,68.0,43.0,30.22,East,101,3.0,7.0,40,99.99,,,-99.99,,2013-03-30 00:12:00,
2013-03-29 20:22:00,66.0,43.0,30.22,East,101,4.0,7.0,43,99.99,,,-99.99,,2013-03-30 00:22:00,
2013-03-29 20:32:00,66.0,44.0,30.22,ESE,117,4.0,9.0,45,99.99,,,-99.99,,2013-03-30 00:32:00,
2013-03-29 20:42:00,66.0,44.0,30.22,ESE,117,4.0,9.0,45,99.99,,,-99.99,,2013-03-30 00:42:00,
2013-03-29 20:53:00,64.0,44.0,30.23,ESE,113,4.0,8.0,48,99.99,,,-99.99,,2013-03-30 00:53:00,
2013-03-29 21:03:00,63.0,44.0,30.24,SE,129,4.0,6.0,50,99.99,,,-99.99,,2013-03-30 01:03:00,
2013-03-29 21:12:00,63.0,44.0,30.24,SE,129,4.0,6.0,50,99.99,,,-99.99,,2013-03-30 01:12:00,
2013-03-29 21:22:00,62.0,45.0,30.24,ESE,113,5.0,8.0,53,99.99,,,-99.99,,2013-03-30 01:22:00,
2013-03-29 21:33:00,61.0,45.0,30.24,ESE,111,4.0,5.0,55,99.99,,,-99.99,,2013-03-30 01:33:00,
2013-03-29 21:43:00,61.0,45.0,30.24,ESE,111,4.0,5.0,55,99.99,,,-99.99,,2013-03-30 01:43:00,
2013-03-29 21:53:00,60.0,45.0,30.24,ESE,120,4.0,5.0,58,99.99,,,-99.99,,2013-03-30 01:53:00,
2013-03-29 22:03:00,59.0,45.0,30.25,ESE,115,3.0,6.0,59,99.99,,,-99.99,,2013-03-30 02:03:00,
2013-03-29 22:12:00,59.0,45.0,30.25,ESE,115,3.0,6.0,59,99.99,,,-99.99,,2013-03-30 02:12:00,
2013-03-29 22:22:00,58.0,45.0,30.25,ESE,121,4.0,6.0,61,99.99,,,-99.99,,2013-03-30 02:22:00,
2013-03-29 22:32:00,58.0,45.0,30.26,ESE,115,4.0,5.0,63,99.99,,,-99.99,,2013-03-30 02:32:00,
2013-03-29 22:42:00,58.0,45.0,30.26,ESE,115,4.0,5.0,63,99.99,,,-99.99,,2013-03-30 02:42:00,
2013-03-29 22:53:00,57.0,45.0,30.26,ESE,120,4.0,7.0,65,99.99,,,-99.99,,2013-03-30 02:53:00,
2013-03-29 23:03:00,57.0,46.0,30.25,ESE,117,4.0,6.0,67,99.99,,,-99.99,,2013-03-30 03:03:00,
2013-03-29 23:12:00,56.0,46.0,30.25,ESE,115,3.0,6.0,69,99.99,,,-99.99,,2013-03-30 03:12:00,
2013-03-29 23:22:00,56.0,46.0,30.25,ESE,115,3.0,6.0,69,99.99,,,-99.99,,2013-03-30 03:22:00,
2013-03-29 23:33:00,56.0,46.0,30.25,ESE,120,3.0,4.0,70,99.99,,,-99.99,,2013-03-30 03:33:00,
2013-03-29 23:43:00,56.0,46.0,30.25,ESE,120,3.0,4.0,70,99.99,,,-99.99,,2013-03-30 03:43:00,
2013-03-29 23:53:00,55.0,46.0,30.25,ESE,115,4.0,5.0,72,99.99,,,-99.99,,2013-03-30 03:53:00,